createdAt,value
2023-02-19T00:00:34.818Z,100515.66
2023-02-19T00:03:38.097Z,100517.09
2023-02-19T00:06:40.180Z,100515.63
2023-02-19T00:09:41.949Z,100513.19
2023-02-19T00:12:43.652Z,100493.78
2023-02-19T00:15:45.431Z,100493.88
2023-02-19T00:18:47.336Z,100484.84
2023-02-19T00:21:52.292Z,100466.56
2023-02-19T00:24:55.058Z,100480.66
2023-02-19T00:27:57.073Z,100482.34
2023-02-19T00:31:18.517Z,100483.97
2023-02-19T00:34:20.593Z,100490.06
2023-02-19T00:37:22.251Z,100486.31
2023-02-19T00:40:26.137Z,100477.50
2023-02-19T00:43:29.134Z,100469.56
2023-02-19T00:46:34.007Z,100459.06
2023-02-19T00:49:35.734Z,100447.53
2023-02-19T00:52:37.461Z,100440.81
2023-02-19T00:55:39.278Z,100440.41
2023-02-19T00:58:41.328Z,100444.16
2023-02-19T01:01:44.930Z,100446.59
2023-02-19T01:04:46.800Z,100441.56
2023-02-19T01:07:48.459Z,100443.13
2023-02-19T01:10:50.305Z,100450.53
2023-02-19T01:13:52.107Z,100449.50
2023-02-19T01:16:53.957Z,100455.53
2023-02-19T01:19:55.615Z,100456.16
2023-02-19T01:22:57.703Z,100471.09
2023-02-19T01:25:59.589Z,100479.56
2023-02-19T01:29:01.811Z,100486.56
2023-02-19T01:32:03.575Z,100493.56
2023-02-19T01:35:05.769Z,100522.56
2023-02-19T01:38:08.423Z,100482.38
2023-02-19T01:41:13.870Z,100457.75
2023-02-19T01:44:15.620Z,100456.09
2023-02-19T01:47:20.296Z,100465.44
2023-02-19T01:50:23.908Z,100464.09
2023-02-19T01:53:30.512Z,100451.09
2023-02-19T01:56:35.293Z,100456.22
2023-02-19T01:59:37.389Z,100444.69
2023-02-19T02:02:41.447Z,100425.31
2023-02-19T02:05:55.515Z,100422.75
2023-02-19T02:09:17.377Z,100429.75
2023-02-19T02:12:19.129Z,100437.25
2023-02-19T02:15:22.466Z,100433.56
2023-02-19T02:18:52.318Z,100443.28
2023-02-19T02:22:07.861Z,100428.44
2023-02-19T02:25:41.657Z,100426.81
2023-02-19T02:29:12.342Z,100425.59
2023-02-19T02:32:21.547Z,100429.72
2023-02-19T02:35:43.802Z,100430.88
2023-02-19T02:38:47.444Z,100441.06
2023-02-19T02:42:14.683Z,100441.69
2023-02-19T02:45:35.443Z,100463.81
2023-02-19T02:49:03.686Z,100432.31
2023-02-19T02:52:28.471Z,100426.13
2023-02-19T02:55:35.353Z,100444.66
2023-02-19T02:58:38.089Z,100440.00
2023-02-19T03:02:15.141Z,100423.44
2023-02-19T03:05:43.401Z,100441.78
2023-02-19T03:09:07.309Z,100437.44
2023-02-19T03:12:34.443Z,100441.88
2023-02-19T03:16:06.507Z,100431.25
2023-02-19T03:19:21.867Z,100429.72
2023-02-19T03:22:31.758Z,100430.53
2023-02-19T03:25:56.261Z,100427.22
2023-02-19T03:29:26.198Z,100436.41
2023-02-19T03:32:52.009Z,100443.50
2023-02-19T03:36:00.513Z,100451.94
2023-02-19T03:39:07.774Z,100468.97
2023-02-19T03:42:17.165Z,100435.06
2023-02-19T03:45:42.926Z,100452.38
2023-02-19T03:49:05.525Z,100445.63
2023-02-19T03:52:26.337Z,100461.72
2023-02-19T03:55:35.984Z,100470.81
2023-02-19T03:58:51.969Z,100484.69
2023-02-19T04:02:00.333Z,100482.13
2023-02-19T04:05:13.828Z,100489.09
2023-02-19T04:08:22.614Z,100504.00
2023-02-19T04:11:32.005Z,100510.53
2023-02-19T04:14:50.107Z,100512.25
2023-02-19T04:17:59.101Z,100522.91
2023-02-19T04:21:02.802Z,100533.28
2023-02-19T04:24:10.375Z,100553.00
2023-02-19T04:27:12.367Z,100552.06
2023-02-19T04:30:14.960Z,100570.91
2023-02-19T04:33:17.121Z,100576.13
2023-02-19T04:36:18.979Z,100571.88
2023-02-19T04:39:20.683Z,100578.28
2023-02-19T04:42:22.742Z,100580.28
2023-02-19T04:45:24.310Z,100585.13
2023-02-19T04:48:26.034Z,100577.34
2023-02-19T04:51:27.647Z,100584.38
2023-02-19T04:54:29.296Z,100608.75
2023-02-19T04:57:31.164Z,100623.91
2023-02-19T05:00:33.934Z,100624.00
2023-02-19T05:03:36.131Z,100652.84
2023-02-19T05:06:37.707Z,100663.28
2023-02-19T05:09:39.693Z,100657.78
2023-02-19T05:12:41.434Z,100672.72
2023-02-19T05:15:43.092Z,100678.03
2023-02-19T05:18:46.076Z,100670.84
2023-02-19T05:21:47.756Z,100676.41
2023-02-19T05:24:49.670Z,100685.50
2023-02-19T05:28:11.232Z,100694.44
2023-02-19T05:31:13.997Z,100700.38
2023-02-19T05:34:16.085Z,100695.91
2023-02-19T05:37:17.681Z,100707.50
2023-02-19T05:40:19.390Z,100723.16
2023-02-19T05:43:20.922Z,100720.34
2023-02-19T05:46:25.694Z,100722.25
2023-02-19T05:49:27.956Z,100728.78
2023-02-19T05:52:29.639Z,100732.81
2023-02-19T05:55:35.487Z,100738.88
2023-02-19T05:58:37.027Z,100747.16
2023-02-19T06:01:38.794Z,100754.09
2023-02-19T06:04:40.553Z,100760.78
2023-02-19T06:07:42.919Z,100777.44
2023-02-19T06:10:44.558Z,100786.50
2023-02-19T06:13:46.273Z,100794.53
2023-02-19T06:16:47.969Z,100807.19
2023-02-19T06:19:49.632Z,100811.56
2023-02-19T06:22:51.866Z,100816.19
2023-02-19T06:25:53.558Z,100821.69
2023-02-19T06:28:55.173Z,100823.75
2023-02-19T06:31:58.063Z,100828.78
2023-02-19T06:34:59.744Z,100838.44
2023-02-19T06:38:01.649Z,100848.53
2023-02-19T06:41:05.478Z,100852.78
2023-02-19T06:44:07.101Z,100860.47
2023-02-19T06:47:08.659Z,100869.19
2023-02-19T06:50:10.253Z,100883.31
2023-02-19T06:53:11.930Z,100891.34
2023-02-19T06:56:50.426Z,100900.38
2023-02-19T06:59:52.060Z,100912.44
2023-02-19T07:02:56.662Z,100919.34
2023-02-19T07:06:01.005Z,100931.13
2023-02-19T07:09:04.451Z,100953.00
2023-02-19T07:12:06.226Z,100967.00
2023-02-19T07:15:08.481Z,100973.09
2023-02-19T07:18:10.626Z,100984.22
2023-02-19T07:21:15.305Z,100991.59
2023-02-19T07:24:17.803Z,101009.56
2023-02-19T07:27:20.942Z,101018.41
2023-02-19T07:30:22.638Z,101021.59
2023-02-19T07:33:24.869Z,101027.63
2023-02-19T07:36:26.713Z,101038.09
2023-02-19T07:39:28.334Z,101045.47
2023-02-19T07:42:30.228Z,101054.38
2023-02-19T07:45:32.964Z,101050.91
2023-02-19T07:48:35.873Z,101051.28
2023-02-19T07:51:39.912Z,101055.28
2023-02-19T07:54:41.545Z,101059.09
2023-02-19T07:57:43.381Z,101075.16
2023-02-19T08:00:45.419Z,101085.56
2023-02-19T08:03:50.089Z,101075.03
2023-02-19T08:06:53.264Z,101089.03
2023-02-19T08:10:14.993Z,101092.38
2023-02-19T08:13:23.589Z,101087.78
2023-02-19T08:16:40.752Z,101098.56
2023-02-19T08:19:44.029Z,101101.13
2023-02-19T08:22:45.833Z,101106.81
2023-02-19T08:25:48.973Z,101123.41
2023-02-19T08:28:50.712Z,101124.38
2023-02-19T08:31:52.545Z,101128.88
2023-02-19T08:34:54.175Z,101133.66
2023-02-19T08:37:57.348Z,101139.00
2023-02-19T08:40:59.268Z,101131.72
2023-02-19T08:44:01.098Z,101134.94
2023-02-19T08:47:05.065Z,101126.38
2023-02-19T08:50:07.470Z,101127.69
2023-02-19T08:53:09.331Z,101131.44
2023-02-19T08:56:13.856Z,101130.25
2023-02-19T08:59:15.628Z,101133.63
2023-02-19T09:02:17.157Z,101139.75
2023-02-19T09:05:18.915Z,101143.13
2023-02-19T09:08:20.600Z,101141.81
2023-02-19T09:11:22.414Z,101149.69
2023-02-19T09:14:24.320Z,101158.47
2023-02-19T09:17:26.585Z,101179.69
2023-02-19T09:20:28.281Z,101196.06
2023-02-19T09:23:30.294Z,101191.88
2023-02-19T09:26:34.098Z,101190.38
2023-02-19T09:29:35.743Z,101196.75
2023-02-19T09:32:37.627Z,101190.88
2023-02-19T09:35:42.453Z,101198.59
2023-02-19T09:38:45.203Z,101183.53
2023-02-19T09:42:15.598Z,101193.72
2023-02-19T09:45:25.163Z,101208.28
2023-02-19T09:48:27.438Z,101220.97
2023-02-19T09:51:30.720Z,101214.81
2023-02-19T09:54:34.088Z,101203.94
2023-02-19T09:57:36.714Z,101210.66
2023-02-19T10:00:39.850Z,101206.34
2023-02-19T10:03:47.145Z,101215.19
2023-02-19T10:06:50.926Z,101228.03
2023-02-19T10:10:13.985Z,101234.97
2023-02-19T10:13:21.564Z,101236.81
2023-02-19T10:16:26.899Z,101250.56
2023-02-19T10:19:28.544Z,101235.59
2023-02-19T10:22:32.633Z,101258.66
2023-02-19T10:25:43.170Z,101274.84
2023-02-19T10:28:45.019Z,101271.13
2023-02-19T10:31:46.643Z,101268.94
2023-02-19T10:34:48.280Z,101279.63
2023-02-19T10:37:51.542Z,101279.28
2023-02-19T10:41:00.422Z,101276.34
2023-02-19T10:44:10.609Z,101286.25
2023-02-19T10:47:18.826Z,101290.72
2023-02-19T10:50:29.980Z,101284.06
2023-02-19T10:53:49.331Z,101283.41
2023-02-19T10:56:50.966Z,101272.56
2023-02-19T11:00:27.542Z,101277.19
2023-02-19T11:03:30.218Z,101268.97
2023-02-19T11:06:34.874Z,101268.34
2023-02-19T11:09:49.431Z,101270.75
2023-02-19T11:12:54.593Z,101279.63
2023-02-19T11:15:57.094Z,101286.34
2023-02-19T11:18:58.877Z,101278.22
2023-02-19T11:22:02.280Z,101286.72
2023-02-19T11:25:18.091Z,101292.69
2023-02-19T11:28:38.870Z,101303.94
2023-02-19T11:31:40.560Z,101310.47
2023-02-19T11:34:42.443Z,101294.06
2023-02-19T11:38:02.444Z,101303.13
2023-02-19T11:41:15.861Z,101296.25
2023-02-19T11:44:35.913Z,101296.41
2023-02-19T11:48:01.875Z,101296.94
2023-02-19T11:51:10.715Z,101307.38
2023-02-19T11:54:32.376Z,101302.66
2023-02-19T11:57:52.888Z,101306.50
2023-02-19T12:01:00.280Z,101308.53
2023-02-19T12:04:20.770Z,101301.75
2023-02-19T12:07:50.457Z,101301.78
2023-02-19T12:11:26.159Z,101298.00
2023-02-19T12:14:36.796Z,101295.63
2023-02-19T12:17:41.581Z,101290.13
2023-02-19T12:21:14.226Z,101289.13
2023-02-19T12:24:16.045Z,101294.47
2023-02-19T12:27:48.997Z,101295.72
2023-02-19T12:31:12.699Z,101300.28
2023-02-19T12:34:53.368Z,101295.03
2023-02-19T12:38:20.627Z,101307.28
2023-02-19T12:41:40.952Z,101308.84
2023-02-19T12:44:51.461Z,101301.88
2023-02-19T12:48:01.411Z,101311.28
2023-02-19T12:51:10.919Z,101317.63
2023-02-19T12:54:23.838Z,101325.03
2023-02-19T12:57:33.386Z,101323.69
2023-02-19T13:00:56.583Z,101320.19
2023-02-19T13:04:20.387Z,101321.75
2023-02-19T13:07:40.659Z,101321.34
2023-02-19T13:10:51.567Z,101322.72
2023-02-19T13:14:00.058Z,101330.91
2023-02-19T13:17:13.568Z,101330.34
2023-02-19T13:20:27.680Z,101340.69
2023-02-19T13:23:52.227Z,101347.84
2023-02-19T13:27:24.984Z,101348.00
2023-02-19T13:31:04.433Z,101339.16
2023-02-19T13:34:25.139Z,101341.50
2023-02-19T13:37:31.394Z,101331.41
2023-02-19T13:41:05.921Z,101324.38
2023-02-19T13:44:25.865Z,101315.69
2023-02-19T13:47:49.178Z,101315.50
2023-02-19T13:51:17.167Z,101309.03
2023-02-19T13:54:26.555Z,101305.63
2023-02-19T13:57:29.369Z,101305.69
2023-02-19T14:00:52.125Z,101311.00
2023-02-19T14:04:24.591Z,101316.97
2023-02-19T14:07:49.250Z,101318.50
2023-02-19T14:10:58.652Z,101318.78
2023-02-19T14:14:06.696Z,101319.72
2023-02-19T14:17:09.210Z,101328.94
2023-02-19T14:20:40.568Z,101337.50
2023-02-19T14:23:43.488Z,101341.34
2023-02-19T14:26:45.522Z,101337.50
2023-02-19T14:29:48.002Z,101338.50
2023-02-19T14:32:58.490Z,101339.47
2023-02-19T14:37:01.688Z,101330.03
2023-02-19T14:40:05.097Z,101336.69
2023-02-19T14:43:12.000Z,101356.50
2023-02-19T14:46:37.635Z,101366.72
2023-02-19T14:49:54.757Z,101367.50
2023-02-19T14:53:05.819Z,101363.00
2023-02-19T14:56:16.364Z,101359.81
2023-02-19T14:59:26.645Z,101345.38
2023-02-19T15:02:30.769Z,101349.50
2023-02-19T15:05:36.944Z,101346.47
2023-02-19T15:08:44.324Z,101350.38
2023-02-19T15:11:46.640Z,101347.66
2023-02-19T15:14:51.484Z,101338.06
2023-02-19T15:17:54.427Z,101334.16
2023-02-19T15:21:04.146Z,101326.69
2023-02-19T15:24:07.161Z,101321.84
2023-02-19T15:27:22.445Z,101313.69
2023-02-19T15:30:29.532Z,101324.19
2023-02-19T15:33:31.121Z,101331.00
2023-02-19T15:36:34.780Z,101334.25
2023-02-19T15:39:48.122Z,101331.41
2023-02-19T15:42:49.819Z,101331.25
2023-02-19T15:45:56.274Z,101327.75
2023-02-19T15:49:31.204Z,101326.28
2023-02-19T15:52:39.907Z,101338.03
2023-02-19T15:56:04.413Z,101331.19
2023-02-19T15:59:17.981Z,101336.88
2023-02-19T16:02:21.971Z,101335.69
2023-02-19T16:05:30.836Z,101346.50
2023-02-19T16:08:34.835Z,101333.69
2023-02-19T16:11:56.845Z,101346.41
2023-02-19T16:14:58.517Z,101341.16
2023-02-19T16:18:01.047Z,101351.28
2023-02-19T16:21:09.038Z,101359.41
2023-02-19T16:24:41.290Z,101357.34
2023-02-19T16:27:43.388Z,101349.22
2023-02-19T16:30:45.260Z,101357.06
2023-02-19T16:33:48.738Z,101362.66
2023-02-19T16:36:50.463Z,101370.63
2023-02-19T16:40:12.180Z,101365.88
2023-02-19T16:43:14.191Z,101368.22
2023-02-19T16:46:15.931Z,101366.94
2023-02-19T16:49:19.398Z,101363.13
2023-02-19T16:52:23.045Z,101363.59
2023-02-19T16:55:25.708Z,101385.25
2023-02-19T16:58:27.449Z,101393.25
2023-02-19T17:01:29.537Z,101394.25
2023-02-19T17:04:31.270Z,101411.28
2023-02-19T17:07:32.912Z,101418.28
2023-02-19T17:10:34.526Z,101420.13
2023-02-19T17:13:36.311Z,101413.28
2023-02-19T17:16:43.790Z,101408.88
2023-02-19T17:19:45.498Z,101428.47
2023-02-19T17:22:47.201Z,101433.47
2023-02-19T17:25:49.205Z,101434.47
2023-02-19T17:28:51.103Z,101428.75
2023-02-19T17:31:52.904Z,101433.28
2023-02-19T17:34:55.049Z,101425.00
2023-02-19T17:37:56.604Z,101424.28
2023-02-19T17:40:58.624Z,101433.81
2023-02-19T17:44:02.623Z,101441.75
2023-02-19T17:47:04.393Z,101443.59
2023-02-19T17:50:06.945Z,101441.97
2023-02-19T17:53:09.756Z,101446.44
2023-02-19T17:56:16.856Z,101445.88
2023-02-19T17:59:18.616Z,101444.03
2023-02-19T18:02:21.080Z,101443.44
2023-02-19T18:05:23.901Z,101442.66
2023-02-19T18:08:25.776Z,101449.53
2023-02-19T18:11:28.713Z,101451.31
2023-02-19T18:14:31.249Z,101464.16
2023-02-19T18:17:33.164Z,101458.13
2023-02-19T18:20:35.088Z,101466.69
2023-02-19T18:23:39.987Z,101465.97
2023-02-19T18:26:42.028Z,101477.91
2023-02-19T18:29:43.672Z,101482.94
2023-02-19T18:32:51.632Z,101482.69
2023-02-19T18:35:54.184Z,101481.09
2023-02-19T18:38:55.814Z,101473.69
2023-02-19T18:41:58.400Z,101486.34
2023-02-19T18:45:01.326Z,101488.91
2023-02-19T18:48:05.270Z,101488.81
2023-02-19T18:51:11.190Z,101486.81
2023-02-19T18:54:13.634Z,101480.44
2023-02-19T18:57:16.086Z,101491.72
2023-02-19T19:00:21.089Z,101501.00
2023-02-19T19:03:23.017Z,101503.50
2023-02-19T19:06:24.755Z,101506.91
2023-02-19T19:09:26.480Z,101508.31
2023-02-19T19:12:28.075Z,101510.69
2023-02-19T19:15:29.965Z,101501.22
2023-02-19T19:18:31.713Z,101506.00
2023-02-19T19:21:33.811Z,101500.59
2023-02-19T19:24:35.897Z,101495.97
2023-02-19T19:27:38.033Z,101494.78
2023-02-19T19:30:40.880Z,101490.50
2023-02-19T19:33:43.806Z,101482.59
2023-02-19T19:36:46.047Z,101480.84
2023-02-19T19:39:49.672Z,101475.56
2023-02-19T19:42:52.518Z,101474.59
2023-02-19T19:45:55.950Z,101473.59
2023-02-19T19:48:57.589Z,101468.28
2023-02-19T19:52:01.184Z,101466.81
2023-02-19T19:55:02.999Z,101463.41
2023-02-19T19:58:04.860Z,101465.03
2023-02-19T20:01:07.405Z,101456.56
2023-02-19T20:04:09.083Z,101456.59
2023-02-19T20:07:10.644Z,101446.31
2023-02-19T20:10:13.065Z,101441.22
2023-02-19T20:13:19.512Z,101436.28
2023-02-19T20:16:28.679Z,101445.75
2023-02-19T20:19:30.523Z,101455.00
2023-02-19T20:22:32.292Z,101463.56
2023-02-19T20:25:34.077Z,101467.00
2023-02-19T20:28:35.547Z,101464.38
2023-02-19T20:31:39.698Z,101451.31
2023-02-19T20:34:41.422Z,101450.31
2023-02-19T20:37:44.115Z,101445.75
2023-02-19T20:40:45.903Z,101440.44
2023-02-19T20:43:47.748Z,101444.44
2023-02-19T20:46:51.359Z,101448.50
2023-02-19T20:49:54.880Z,101446.72
2023-02-19T20:52:56.554Z,101436.47
2023-02-19T20:55:59.700Z,101432.50
2023-02-19T20:59:03.099Z,101442.84
2023-02-19T21:02:08.661Z,101444.66
2023-02-19T21:05:10.415Z,101445.63
2023-02-19T21:08:14.116Z,101444.53
2023-02-19T21:11:17.018Z,101438.84
2023-02-19T21:14:19.319Z,101427.81
2023-02-19T21:17:20.965Z,101424.53
2023-02-19T21:20:22.618Z,101423.50
2023-02-19T21:23:24.102Z,101423.50
2023-02-19T21:26:35.143Z,101416.56
2023-02-19T21:29:37.700Z,101419.03
2023-02-19T21:32:39.333Z,101422.69
2023-02-19T21:35:40.979Z,101427.75
2023-02-19T21:38:42.549Z,101434.53
2023-02-19T21:41:45.600Z,101438.72
2023-02-19T21:44:47.652Z,101439.50
2023-02-19T21:47:52.200Z,101439.31
2023-02-19T21:50:53.755Z,101441.72
2023-02-19T21:53:55.390Z,101435.28
2023-02-19T21:56:57.021Z,101435.44
2023-02-19T21:59:58.661Z,101432.78
2023-02-19T22:03:00.299Z,101414.88
2023-02-19T22:06:02.404Z,101416.31
2023-02-19T22:09:04.163Z,101412.81
2023-02-19T22:12:06.035Z,101408.94
2023-02-19T22:15:08.175Z,101408.31
2023-02-19T22:18:09.772Z,101422.34
2023-02-19T22:21:11.627Z,101424.59
2023-02-19T22:24:18.899Z,101419.41
2023-02-19T22:27:20.623Z,101417.91
2023-02-19T22:30:22.291Z,101409.44
2023-02-19T22:33:24.062Z,101401.84
2023-02-19T22:36:28.300Z,101403.44
2023-02-19T22:39:30.016Z,101393.06
2023-02-19T22:42:31.694Z,101383.91
2023-02-19T22:45:33.535Z,101384.13
2023-02-19T22:48:35.142Z,101389.84
2023-02-19T22:51:36.883Z,101404.75
2023-02-19T22:54:39.408Z,101399.16
2023-02-19T22:57:40.908Z,101398.13
2023-02-19T23:00:42.542Z,101402.88
2023-02-19T23:03:51.512Z,101388.88
2023-02-19T23:06:53.291Z,101380.09
2023-02-19T23:09:55.075Z,101383.50
2023-02-19T23:12:56.829Z,101367.59
2023-02-19T23:15:58.532Z,101365.94
2023-02-19T23:19:00.196Z,101370.09
2023-02-19T23:22:01.895Z,101374.16
2023-02-19T23:25:03.617Z,101381.28
2023-02-19T23:28:05.431Z,101374.13
2023-02-19T23:31:07.596Z,101372.38
2023-02-19T23:34:09.595Z,101378.25
2023-02-19T23:37:11.113Z,101372.16
2023-02-19T23:40:13.644Z,101390.94
2023-02-19T23:43:15.319Z,101361.81
2023-02-19T23:46:18.364Z,101361.94
2023-02-19T23:49:20.084Z,101362.75
2023-02-19T23:52:21.814Z,101367.69
2023-02-19T23:55:23.545Z,101364.44
2023-02-19T23:58:25.248Z,101371.56
